Time;durP1;ratioP1;P1;durP2;ratioP2;P2;SDS_P1;SDS_P2;PMS_P1;PMS_P2;Temp;Humidity;BMP_temperature;BMP_pressure;BME280_temperature;BME280_humidity;BME280_pressure;Samples;Min_cycle;Max_cycle;Signal;HPM_P1;HPM_P2
2021/12/07 00:01:21;;;;;;;37.17;21.13;;;3.10;99.90;;;;;;5075544;28;20237;-80
2021/12/07 00:03:48;;;;;;;35.70;20.30;;;3.10;99.90;;;;;;5094978;28;20242;-81
2021/12/07 00:06:15;;;;;;;32.87;20.53;;;3.10;99.90;;;;;;5089341;28;20688;-80
2021/12/07 00:08:42;;;;;;;36.27;21.43;;;3.10;99.90;;;;;;5091228;28;20215;-81
2021/12/07 00:11:09;;;;;;;37.30;21.37;;;3.10;99.90;;;;;;5087202;28;20561;-81
2021/12/07 00:13:39;;;;;;;36.60;21.57;;;3.20;99.90;;;;;;5084899;28;20761;-80
2021/12/07 00:16:09;;;;;;;37.67;20.97;;;3.20;99.90;;;;;;5090237;28;20229;-81
2021/12/07 00:18:36;;;;;;;36.40;20.23;;;3.20;99.90;;;;;;5097828;28;20696;-81
2021/12/07 00:21:04;;;;;;;36.07;21.83;;;3.30;99.90;;;;;;5097270;28;20743;-81
2021/12/07 00:23:32;;;;;;;33.77;20.43;;;3.30;99.90;;;;;;5090515;28;20235;-81
2021/12/07 00:25:59;;;;;;;32.77;20.97;;;3.30;99.90;;;;;;5084983;28;20692;-80
2021/12/07 00:28:25;;;;;;;33.97;20.47;;;3.30;99.90;;;;;;5092485;28;20225;-80
2021/12/07 00:30:55;;;;;;;34.60;20.57;;;3.40;99.90;;;;;;5088961;28;20313;-80
2021/12/07 00:33:36;;;;;;;36.30;22.10;;;3.30;99.90;;;;;;5085968;28;20231;-81
2021/12/07 00:36:03;;;;;;;35.20;20.77;;;3.30;99.90;;;;;;5085578;28;20754;-80
2021/12/07 00:38:32;;;;;;;38.63;21.93;;;3.30;99.90;;;;;;5088208;28;20234;-80
2021/12/07 00:41:01;;;;;;;39.83;22.10;;;3.30;99.90;;;;;;5088455;28;20230;-80
2021/12/07 00:43:29;;;;;;;36.90;21.90;;;3.20;99.90;;;;;;5086905;28;20614;-81
2021/12/07 00:45:58;;;;;;;36.00;20.87;;;3.20;99.90;;;;;;5091311;28;20220;-80
2021/12/07 00:48:26;;;;;;;41.10;21.37;;;3.20;99.90;;;;;;5085079;28;20939;-80
2021/12/07 00:50:54;;;;;;;37.60;22.40;;;3.20;99.90;;;;;;5084868;28;20229;-80
2021/12/07 00:53:23;;;;;;;40.63;21.57;;;3.20;99.90;;;;;;5094452;28;20779;-80
2021/12/07 00:55:53;;;;;;;40.97;22.10;;;3.20;99.90;;;;;;5093533;28;20226;-80
2021/12/07 00:58:23;;;;;;;36.90;21.77;;;3.20;99.90;;;;;;5084262;28;20215;-80
2021/12/07 01:00:55;;;;;;;37.43;21.90;;;3.20;99.90;;;;;;5093794;28;20225;-80
2021/12/07 01:03:24;;;;;;;39.63;21.73;;;3.20;99.90;;;;;;5094532;28;20765;-79
2021/12/07 01:06:01;;;;;;;41.37;23.07;;;3.20;99.90;;;;;;5108567;28;20227;-80
2021/12/07 01:08:53;;;;;;;39.63;22.37;;;3.20;99.90;;;;;;5085853;28;20217;-78
2021/12/07 01:25:08;;;;;;;38.87;22.00;;;3.20;99.90;;;;;;5091987;28;20229;-80
2021/12/07 01:27:35;;;;;;;39.73;21.73;;;3.10;99.90;;;;;;5091830;28;20858;-79
2021/12/07 01:30:09;;;;;;;41.30;22.60;;;3.10;99.90;;;;;;5087369;28;20554;-80
2021/12/07 01:32:57;;;;;;;40.23;22.77;;;3.20;99.90;;;;;;5085991;28;21494;-80
2021/12/07 01:41:01;;;;;;;41.83;22.87;;;3.10;99.90;;;;;;5104717;27;20218;-80
2021/12/07 01:43:57;;;;;;;40.83;23.30;;;3.10;99.90;;;;;;5083521;28;20219;-80
2021/12/07 02:00:18;;;;;;;40.10;22.70;;;3.00;99.90;;;;;;5049904;28;20922;-80
2021/12/07 02:02:46;;;;;;;43.33;24.30;;;3.00;99.90;;;;;;5087916;28;20607;-79
2021/12/07 02:05:14;;;;;;;40.57;23.33;;;3.10;99.90;;;;;;5092020;28;21003;-80
2021/12/07 02:07:42;;;;;;;41.87;23.27;;;3.00;99.90;;;;;;5092121;28;20253;-80
2021/12/07 02:10:15;;;;;;;38.53;22.80;;;3.00;99.90;;;;;;5101106;28;20242;-80
2021/12/07 02:12:47;;;;;;;42.47;22.60;;;3.10;99.90;;;;;;5085809;28;20300;-80
2021/12/07 02:15:15;;;;;;;45.43;24.17;;;3.00;99.90;;;;;;5081247;28;20425;-79
2021/12/07 02:17:44;;;;;;;41.57;24.30;;;3.00;99.90;;;;;;5090881;28;20325;-79
2021/12/07 02:20:13;;;;;;;44.07;24.73;;;3.00;99.90;;;;;;5088327;28;20682;-79
2021/12/07 02:22:41;;;;;;;42.00;23.47;;;3.00;99.90;;;;;;5089658;28;20656;-79
2021/12/07 02:25:10;;;;;;;39.27;22.77;;;3.00;99.90;;;;;;5091479;28;20306;-80
2021/12/07 02:27:38;;;;;;;42.63;23.07;;;3.00;99.90;;;;;;5089421;28;20220;-80
2021/12/07 02:30:09;;;;;;;39.83;23.43;;;3.00;99.90;;;;;;5085052;28;20220;-80
2021/12/07 02:32:39;;;;;;;40.37;23.50;;;3.00;99.90;;;;;;5086716;28;20264;-80
2021/12/07 02:35:12;;;;;;;46.00;24.30;;;3.00;99.90;;;;;;5090998;28;20207;-80
2021/12/07 02:37:41;;;;;;;42.93;23.37;;;3.00;99.90;;;;;;5102602;28;20251;-80
2021/12/07 02:40:10;;;;;;;46.30;24.20;;;3.00;99.90;;;;;;5091603;28;20221;-81
2021/12/07 02:42:38;;;;;;;40.53;23.80;;;3.00;99.90;;;;;;5087801;28;20230;-81
2021/12/07 02:45:07;;;;;;;41.43;24.17;;;3.00;99.90;;;;;;5087217;28;20222;-81
2021/12/07 02:47:35;;;;;;;46.23;24.40;;;3.00;99.90;;;;;;5090187;28;20222;-80
2021/12/07 02:50:02;;;;;;;43.50;23.73;;;3.10;99.90;;;;;;5089180;28;20267;-81
2021/12/07 02:52:30;;;;;;;40.07;23.07;;;3.10;99.90;;;;;;5096609;28;20310;-81
2021/12/07 02:54:58;;;;;;;44.00;24.37;;;3.10;99.90;;;;;;5084120;28;20739;-81
2021/12/07 02:57:31;;;;;;;38.17;23.13;;;3.10;99.90;;;;;;5095377;28;20246;-80
2021/12/07 03:00:02;;;;;;;40.00;23.40;;;3.10;99.90;;;;;;5081396;28;20272;-80
2021/12/07 03:02:34;;;;;;;44.03;24.73;;;3.10;99.90;;;;;;5089932;28;20689;-80
2021/12/07 03:05:07;;;;;;;43.33;23.37;;;3.10;99.90;;;;;;5094088;28;20338;-80
2021/12/07 03:07:47;;;;;;;41.47;23.87;;;3.10;99.90;;;;;;5088997;27;20223;-79
2021/12/07 03:26:45;;;;;;;42.57;24.20;;;3.30;99.90;;;;;;5103403;28;20222;-80
2021/12/07 03:29:12;;;;;;;37.90;22.37;;;3.30;99.90;;;;;;5095233;28;20281;-80
2021/12/07 03:31:40;;;;;;;41.77;23.60;;;3.30;99.90;;;;;;5088928;28;20309;-80
2021/12/07 03:34:07;;;;;;;42.60;24.10;;;3.40;99.90;;;;;;5086885;28;20626;-81
2021/12/07 03:36:35;;;;;;;41.27;23.77;;;3.40;99.90;;;;;;5088775;28;20616;-81
2021/12/07 03:39:04;;;;;;;40.63;22.13;;;3.40;99.90;;;;;;5105107;28;20228;-81
2021/12/07 03:41:32;;;;;;;40.63;25.17;;;3.50;99.90;;;;;;5098463;28;20248;-81
2021/12/07 03:44:02;;;;;;;39.30;22.97;;;3.50;99.90;;;;;;5090316;28;20218;-80
2021/12/07 03:46:30;;;;;;;40.60;23.73;;;3.50;99.90;;;;;;5093064;28;20225;-80
2021/12/07 03:48:57;;;;;;;45.10;24.33;;;3.50;99.90;;;;;;5094403;28;20220;-81
2021/12/07 03:51:25;;;;;;;40.63;24.00;;;3.60;99.90;;;;;;5100186;28;20737;-81
2021/12/07 03:53:52;;;;;;;50.27;24.47;;;3.60;99.90;;;;;;5096445;28;20221;-81
2021/12/07 03:56:19;;;;;;;43.57;24.30;;;3.60;99.90;;;;;;5094487;28;20256;-81
2021/12/07 03:58:46;;;;;;;43.17;24.70;;;3.70;99.90;;;;;;5092714;28;20745;-81
2021/12/07 04:01:15;;;;;;;42.00;23.63;;;3.70;99.90;;;;;;5087866;28;20237;-81
2021/12/07 04:03:45;;;;;;;41.80;24.23;;;3.70;99.90;;;;;;5096376;28;20240;-81
2021/12/07 04:06:14;;;;;;;39.13;23.77;;;3.70;99.90;;;;;;5089028;28;20214;-81
2021/12/07 04:08:42;;;;;;;43.97;24.07;;;3.70;99.90;;;;;;5091359;28;20241;-81
2021/12/07 04:11:13;;;;;;;41.67;24.17;;;3.70;99.90;;;;;;5094080;28;20251;-81
2021/12/07 04:13:43;;;;;;;42.03;23.93;;;3.80;99.90;;;;;;5095434;28;20255;-81
2021/12/07 04:16:12;;;;;;;41.00;23.97;;;3.80;99.90;;;;;;5090830;28;20687;-80
2021/12/07 04:18:43;;;;;;;40.17;23.57;;;3.80;99.90;;;;;;5094964;28;20314;-80
2021/12/07 04:21:10;;;;;;;39.77;23.47;;;3.80;99.90;;;;;;5085629;28;20293;-79
2021/12/07 04:23:37;;;;;;;39.77;23.10;;;3.80;99.90;;;;;;5092479;28;20934;-79
2021/12/07 04:26:07;;;;;;;41.43;23.30;;;3.80;99.90;;;;;;5095970;28;20263;-80
2021/12/07 04:28:33;;;;;;;40.87;23.30;;;3.80;99.90;;;;;;5087871;28;20310;-79
2021/12/07 04:31:00;;;;;;;40.63;23.43;;;3.80;99.90;;;;;;5103605;28;20224;-81
2021/12/07 04:33:29;;;;;;;40.53;24.07;;;3.80;99.90;;;;;;5089993;28;20592;-80
2021/12/07 04:35:58;;;;;;;39.23;23.43;;;3.80;99.90;;;;;;5087435;28;20307;-81
2021/12/07 04:38:25;;;;;;;39.03;22.83;;;3.80;99.90;;;;;;5088940;28;21670;-80
2021/12/07 04:40:52;;;;;;;39.97;23.67;;;3.80;99.90;;;;;;5095169;28;20215;-79
2021/12/07 04:43:19;;;;;;;39.23;23.17;;;3.80;99.90;;;;;;5088650;28;20743;-79
2021/12/07 04:45:58;;;;;;;41.67;23.53;;;3.80;99.90;;;;;;5097576;28;20216;-80
2021/12/07 04:48:57;;;;;;;42.03;23.10;;;3.80;99.90;;;;;;5085528;28;20283;-80
2021/12/07 04:59:41;;;;;;;41.87;24.20;;;3.80;99.90;;;;;;5096201;28;20224;-81
2021/12/07 05:02:08;;;;;;;43.20;23.80;;;3.80;99.90;;;;;;5098184;28;20228;-81
2021/12/07 05:04:36;;;;;;;43.07;23.97;;;3.80;99.90;;;;;;5090737;28;20223;-80
2021/12/07 05:07:11;;;;;;;42.57;23.90;;;3.80;99.90;;;;;;5091735;28;20231;-81
2021/12/07 05:10:10;;;;;;;42.53;23.57;;;3.80;99.90;;;;;;5092816;28;20236;-80
2021/12/07 05:13:08;;;;;;;36.43;22.67;;;3.80;99.90;;;;;;5086904;28;20234;-79
2021/12/07 05:15:58;;;;;;;37.30;22.50;;;3.80;99.90;;;;;;5103014;28;20221;-80
2021/12/07 05:18:39;;;;;;;40.50;22.53;;;3.80;99.90;;;;;;5088628;28;20229;-82
2021/12/07 05:24:00;;;;;;;47.67;23.53;;;3.70;99.90;;;;;;5091813;28;20702;-80
2021/12/07 05:40:11;;;;;;;39.37;21.53;;;3.80;99.90;;;;;;5084171;28;20225;-80
2021/12/07 05:42:40;;;;;;;37.53;21.77;;;3.80;99.90;;;;;;5092449;28;20217;-80
2021/12/07 05:45:11;;;;;;;38.37;21.83;;;3.80;99.90;;;;;;5093195;28;20228;-80
2021/12/07 05:47:37;;;;;;;39.57;21.23;;;3.80;99.90;;;;;;5093175;28;20724;-80
2021/12/07 05:50:06;;;;;;;36.30;21.47;;;3.80;99.90;;;;;;5091975;28;20231;-80
2021/12/07 05:52:33;;;;;;;37.47;22.13;;;3.80;99.90;;;;;;5089762;28;20951;-80
2021/12/07 05:55:00;;;;;;;37.73;21.70;;;3.80;99.90;;;;;;5093424;28;20781;-80
2021/12/07 05:57:28;;;;;;;38.67;21.80;;;3.80;99.90;;;;;;5085279;28;20317;-79
2021/12/07 05:59:55;;;;;;;37.27;21.23;;;3.80;99.90;;;;;;5093348;28;20218;-80
2021/12/07 06:02:21;;;;;;;39.07;21.83;;;3.70;99.90;;;;;;5084871;28;20234;-79
2021/12/07 06:04:48;;;;;;;37.90;21.23;;;3.70;99.90;;;;;;5092619;28;20226;-79
2021/12/07 06:07:15;;;;;;;38.20;21.23;;;3.80;99.90;;;;;;5094001;28;20221;-80
2021/12/07 06:09:42;;;;;;;38.97;21.90;;;3.70;99.90;;;;;;5095593;28;20303;-79
2021/12/07 06:12:09;;;;;;;36.77;20.23;;;3.70;99.90;;;;;;5087635;28;20273;-80
2021/12/07 06:14:42;;;;;;;40.53;21.67;;;3.70;99.90;;;;;;5097013;28;20824;-82
2021/12/07 06:17:09;;;;;;;34.97;21.10;;;3.70;99.90;;;;;;5084733;28;20697;-79
2021/12/07 06:19:36;;;;;;;34.77;21.13;;;3.70;99.90;;;;;;5085004;28;21024;-79
2021/12/07 06:22:05;;;;;;;35.60;21.07;;;3.70;99.90;;;;;;5090072;28;20232;-79
2021/12/07 06:24:31;;;;;;;34.27;20.17;;;3.70;99.90;;;;;;5089489;28;20313;-79
2021/12/07 06:26:58;;;;;;;38.03;21.40;;;3.70;99.90;;;;;;5090270;28;20223;-79
2021/12/07 06:29:25;;;;;;;48.73;20.70;;;3.70;99.90;;;;;;5095791;28;20209;-79
2021/12/07 06:31:54;;;;;;;38.87;20.40;;;3.70;99.90;;;;;;5091271;28;20229;-79
2021/12/07 06:34:21;;;;;;;36.87;21.43;;;3.70;99.90;;;;;;5092417;28;20302;-79
2021/12/07 06:36:47;;;;;;;37.00;21.47;;;3.70;99.90;;;;;;5096507;28;20326;-78
2021/12/07 06:39:14;;;;;;;36.10;21.50;;;3.70;99.90;;;;;;5094157;28;20220;-78
2021/12/07 06:41:41;;;;;;;39.17;22.23;;;3.70;99.90;;;;;;5095858;28;20291;-79
2021/12/07 06:44:08;;;;;;;38.90;20.73;;;3.70;99.90;;;;;;5100653;28;20324;-78
2021/12/07 06:46:35;;;;;;;38.37;22.00;;;3.70;99.90;;;;;;5099842;28;20234;-79
2021/12/07 06:49:04;;;;;;;33.27;19.80;;;3.70;99.90;;;;;;5098401;28;20318;-79
2021/12/07 06:51:31;;;;;;;36.73;21.07;;;3.70;99.90;;;;;;5095329;28;20244;-78
2021/12/07 06:53:58;;;;;;;37.37;20.87;;;3.70;99.90;;;;;;5090356;28;20230;-79
2021/12/07 06:56:26;;;;;;;37.07;21.33;;;3.60;99.90;;;;;;5088386;28;20230;-78
2021/12/07 06:58:53;;;;;;;39.63;21.40;;;3.60;99.90;;;;;;5094498;28;20246;-79
2021/12/07 07:01:20;;;;;;;37.47;21.77;;;3.60;99.90;;;;;;5089696;28;20225;-79
2021/12/07 07:03:47;;;;;;;38.77;21.40;;;3.70;99.90;;;;;;5097548;28;20213;-78
2021/12/07 07:06:15;;;;;;;39.70;21.87;;;3.70;99.90;;;;;;5093794;28;20215;-79
2021/12/07 07:08:42;;;;;;;36.33;21.23;;;3.70;99.90;;;;;;5089745;28;20238;-79
2021/12/07 07:11:09;;;;;;;36.23;21.67;;;3.70;99.90;;;;;;5105386;28;20228;-79
2021/12/07 07:13:35;;;;;;;38.60;21.70;;;3.70;99.90;;;;;;5092846;28;20232;-79
2021/12/07 07:16:03;;;;;;;36.27;21.23;;;3.80;99.90;;;;;;5089346;28;20250;-79
2021/12/07 07:18:29;;;;;;;37.97;21.13;;;3.80;99.90;;;;;;5093759;28;20291;-79
2021/12/07 07:20:56;;;;;;;38.67;21.70;;;3.80;99.90;;;;;;5092788;28;20286;-79
2021/12/07 07:23:25;;;;;;;36.07;21.60;;;3.80;99.90;;;;;;5085374;28;20759;-79
2021/12/07 07:25:55;;;;;;;36.63;21.80;;;3.80;99.90;;;;;;5089348;28;20327;-78
2021/12/07 07:28:22;;;;;;;42.40;22.87;;;3.80;99.90;;;;;;5090717;28;20237;-79
2021/12/07 07:30:49;;;;;;;35.87;21.60;;;3.80;99.90;;;;;;5092211;28;20983;-79
2021/12/07 07:33:16;;;;;;;36.27;20.87;;;3.80;99.90;;;;;;5095947;28;20633;-79
2021/12/07 07:35:42;;;;;;;39.27;22.57;;;3.80;99.90;;;;;;5101612;28;20812;-79
2021/12/07 07:38:09;;;;;;;37.93;21.07;;;3.80;99.90;;;;;;5093213;28;20707;-79
2021/12/07 07:40:37;;;;;;;35.80;21.53;;;3.80;99.90;;;;;;5092959;28;20231;-79
2021/12/07 07:43:04;;;;;;;39.23;22.83;;;3.80;99.90;;;;;;5092520;28;20294;-79
2021/12/07 07:45:53;;;;;;;37.43;21.60;;;3.90;99.90;;;;;;5078725;28;20220;-79
2021/12/07 07:48:21;;;;;;;40.33;22.93;;;3.80;99.90;;;;;;5089030;28;20223;-79
2021/12/07 07:50:52;;;;;;;37.87;22.50;;;3.80;99.90;;;;;;5098858;28;20260;-79
2021/12/07 07:53:19;;;;;;;38.73;21.60;;;3.80;99.90;;;;;;5090834;28;20220;-79
2021/12/07 07:55:48;;;;;;;41.77;23.00;;;3.80;99.90;;;;;;5087619;28;20316;-79
2021/12/07 07:58:15;;;;;;;38.63;21.57;;;3.80;99.90;;;;;;5095031;28;20226;-80
2021/12/07 08:00:43;;;;;;;43.77;23.27;;;3.90;99.90;;;;;;5093678;28;20932;-79
2021/12/07 08:03:10;;;;;;;43.20;25.03;;;3.90;99.90;;;;;;5089574;28;20254;-79
2021/12/07 08:05:37;;;;;;;40.83;22.57;;;3.90;99.90;;;;;;5090490;28;20234;-79
2021/12/07 08:08:04;;;;;;;41.40;23.60;;;3.90;99.90;;;;;;5095971;28;20228;-79
2021/12/07 08:10:32;;;;;;;45.73;24.07;;;3.90;99.90;;;;;;5095693;28;20310;-80
2021/12/07 08:13:03;;;;;;;37.17;23.23;;;3.90;99.90;;;;;;5090587;28;20222;-80
2021/12/07 08:15:36;;;;;;;39.23;22.50;;;3.90;99.90;;;;;;5089012;28;20301;-80
2021/12/07 08:18:04;;;;;;;43.53;22.17;;;3.90;99.90;;;;;;5083663;28;20594;-79
2021/12/07 08:20:32;;;;;;;37.73;21.63;;;3.90;99.90;;;;;;5093314;28;20323;-79
2021/12/07 08:23:04;;;;;;;41.50;22.40;;;4.00;99.90;;;;;;5096399;28;20296;-79
2021/12/07 08:25:31;;;;;;;42.33;23.53;;;3.90;99.90;;;;;;5089943;28;20294;-78
2021/12/07 08:28:00;;;;;;;42.13;23.13;;;3.90;99.90;;;;;;5089806;28;20221;-79
2021/12/07 08:30:27;;;;;;;37.87;22.53;;;3.90;99.90;;;;;;5100275;28;20267;-80
2021/12/07 08:32:54;;;;;;;39.37;21.53;;;4.00;99.90;;;;;;5093481;28;20218;-80
2021/12/07 08:35:21;;;;;;;37.60;21.90;;;4.00;99.90;;;;;;5089468;28;20218;-79
2021/12/07 08:37:49;;;;;;;40.50;22.77;;;4.00;99.90;;;;;;5097609;28;20315;-79
2021/12/07 08:40:18;;;;;;;39.53;21.87;;;4.00;99.90;;;;;;5086275;28;20218;-79
2021/12/07 08:42:45;;;;;;;35.60;22.07;;;4.00;99.90;;;;;;5086084;28;20769;-79
2021/12/07 08:45:14;;;;;;;38.10;21.53;;;4.00;99.90;;;;;;5081035;28;20218;-79
2021/12/07 08:47:41;;;;;;;40.50;22.17;;;4.10;99.90;;;;;;5087631;28;20689;-79
2021/12/07 08:50:11;;;;;;;37.83;22.23;;;4.10;99.90;;;;;;5102251;27;20218;-79
2021/12/07 08:52:38;;;;;;;35.27;20.87;;;4.00;99.90;;;;;;5088233;28;20565;-78
2021/12/07 09:00:37;;;;;;;36.10;21.87;;;4.00;99.90;;;;;;5082060;28;20226;-79
2021/12/07 09:03:04;;;;;;;37.40;21.60;;;4.00;99.90;;;;;;5095123;28;20214;-80
2021/12/07 09:05:31;;;;;;;36.20;21.13;;;4.00;99.90;;;;;;5093221;28;20218;-79
2021/12/07 09:07:58;;;;;;;36.27;22.17;;;4.00;99.90;;;;;;5088351;28;20244;-79
2021/12/07 09:10:25;;;;;;;36.77;21.50;;;4.00;99.90;;;;;;5088757;28;20308;-79
2021/12/07 09:12:52;;;;;;;36.87;22.07;;;4.00;99.90;;;;;;5096258;28;20317;-80
2021/12/07 09:15:19;;;;;;;33.10;20.37;;;4.00;99.90;;;;;;5104952;28;20750;-78
2021/12/07 09:17:47;;;;;;;39.80;21.70;;;4.00;99.90;;;;;;5100231;28;20285;-79
2021/12/07 09:20:16;;;;;;;35.20;20.10;;;4.00;99.90;;;;;;5101069;28;20313;-80
2021/12/07 09:22:44;;;;;;;39.43;21.83;;;4.00;99.90;;;;;;5095680;28;20245;-79
2021/12/07 09:25:11;;;;;;;34.00;20.13;;;4.00;99.90;;;;;;5088070;28;20240;-80
2021/12/07 09:27:38;;;;;;;33.07;20.70;;;4.00;99.90;;;;;;5094431;28;20232;-80
2021/12/07 09:30:06;;;;;;;36.23;21.60;;;4.00;99.90;;;;;;5084205;28;20560;-79
2021/12/07 09:32:33;;;;;;;37.23;21.37;;;4.00;99.90;;;;;;5082408;28;20235;-80
2021/12/07 09:35:02;;;;;;;39.67;21.47;;;4.00;99.90;;;;;;5091097;28;20213;-79
2021/12/07 09:37:30;;;;;;;38.13;20.93;;;4.00;99.90;;;;;;5095652;28;20755;-80
2021/12/07 09:39:57;;;;;;;35.73;20.23;;;4.00;99.90;;;;;;5099662;28;20304;-78
2021/12/07 09:42:23;;;;;;;34.30;20.20;;;4.00;99.90;;;;;;5083568;28;20234;-79
2021/12/07 09:44:50;;;;;;;33.30;20.17;;;4.00;99.90;;;;;;5087719;28;20635;-79
2021/12/07 09:47:17;;;;;;;35.37;20.73;;;4.00;99.90;;;;;;5086526;28;20241;-79
2021/12/07 09:49:44;;;;;;;36.50;21.17;;;4.00;99.90;;;;;;5087826;28;20229;-79
2021/12/07 09:52:12;;;;;;;34.10;20.67;;;4.00;99.90;;;;;;5091317;28;20225;-78
2021/12/07 09:54:39;;;;;;;34.47;20.33;;;4.10;99.90;;;;;;5086767;28;20234;-79
2021/12/07 09:57:06;;;;;;;33.27;20.57;;;4.10;99.90;;;;;;5090474;28;20214;-79
2021/12/07 09:59:33;;;;;;;35.10;20.57;;;4.10;99.90;;;;;;5091984;28;20710;-79
2021/12/07 10:02:03;;;;;;;37.17;20.57;;;4.10;99.90;;;;;;5084379;28;20236;-79
2021/12/07 10:04:30;;;;;;;34.40;19.70;;;4.20;99.90;;;;;;5072639;28;20268;-78
2021/12/07 10:06:57;;;;;;;36.93;20.93;;;4.30;99.90;;;;;;5084774;28;20708;-79
2021/12/07 10:09:25;;;;;;;33.13;19.23;;;4.30;99.90;;;;;;5101493;27;20227;-79
2021/12/07 10:11:52;;;;;;;34.23;20.20;;;4.30;99.90;;;;;;5092293;28;20246;-81
2021/12/07 10:14:20;;;;;;;33.53;19.57;;;4.30;99.90;;;;;;5090983;28;20230;-81
2021/12/07 10:16:48;;;;;;;32.07;19.30;;;4.40;99.90;;;;;;5098706;28;20216;-81
2021/12/07 10:19:27;;;;;;;35.80;20.33;;;4.30;99.90;;;;;;5089155;28;20222;-78
2021/12/07 10:22:01;;;;;;;33.30;19.03;;;4.30;99.90;;;;;;5084967;28;20226;-79
2021/12/07 10:24:38;;;;;;;34.30;19.83;;;4.30;99.90;;;;;;5086876;28;20573;-78
2021/12/07 10:27:06;;;;;;;33.97;20.17;;;4.30;99.90;;;;;;5082780;28;20224;-79
2021/12/07 10:29:34;;;;;;;32.77;19.50;;;4.40;99.90;;;;;;5096307;28;20247;-79
2021/12/07 10:32:05;;;;;;;33.23;19.23;;;4.30;99.90;;;;;;5087099;28;20344;-79
2021/12/07 10:34:36;;;;;;;34.27;20.23;;;4.40;99.90;;;;;;5089096;28;20229;-79
2021/12/07 10:37:07;;;;;;;32.90;20.03;;;4.40;99.90;;;;;;5082818;28;20318;-80
2021/12/07 10:39:38;;;;;;;33.63;19.93;;;4.50;99.90;;;;;;5092609;28;20302;-78
2021/12/07 10:42:08;;;;;;;33.60;19.67;;;4.50;99.90;;;;;;5089430;28;20283;-79
2021/12/07 10:44:38;;;;;;;30.70;18.87;;;4.50;99.90;;;;;;5079832;28;20225;-80
2021/12/07 10:47:05;;;;;;;34.13;20.83;;;4.50;99.90;;;;;;5084201;28;20233;-79
2021/12/07 10:49:42;;;;;;;31.70;19.53;;;4.60;99.90;;;;;;5081901;28;20720;-80
2021/12/07 10:52:23;;;;;;;33.90;19.90;;;4.50;99.90;;;;;;5082729;28;20218;-79
2021/12/07 10:54:59;;;;;;;35.90;20.10;;;4.60;99.90;;;;;;5084865;28;20230;-79
2021/12/07 10:57:32;;;;;;;32.13;20.10;;;4.60;99.90;;;;;;5087468;28;20220;-78
2021/12/07 11:00:21;;;;;;;32.20;19.20;;;4.60;99.90;;;;;;5083359;28;20627;-79
2021/12/07 11:02:52;;;;;;;31.00;18.67;;;4.70;99.90;;;;;;5086887;28;20228;-80
2021/12/07 11:05:21;;;;;;;31.20;19.63;;;4.70;99.90;;;;;;5083737;28;20220;-78
2021/12/07 11:07:50;;;;;;;38.40;19.73;;;4.60;99.90;;;;;;5085070;28;20236;-79
2021/12/07 11:10:23;;;;;;;36.70;20.07;;;4.60;99.90;;;;;;5088716;28;20254;-79
2021/12/07 11:13:00;;;;;;;35.77;20.23;;;4.60;99.90;;;;;;5085733;28;20744;-79
2021/12/07 11:15:29;;;;;;;35.67;19.90;;;4.60;99.90;;;;;;5094878;28;20234;-78
2021/12/07 11:17:58;;;;;;;35.97;19.90;;;4.60;99.90;;;;;;5085126;28;20916;-79
2021/12/07 11:20:26;;;;;;;31.60;18.87;;;4.60;99.90;;;;;;5084697;28;20226;-79
2021/12/07 11:22:58;;;;;;;36.13;19.77;;;4.50;99.90;;;;;;5083975;28;20215;-78
2021/12/07 11:29:39;;;;;;;34.10;20.53;;;4.50;99.90;;;;;;5083441;28;20237;-79
2021/12/07 11:31:31;;;;;;;32.27;19.93;;;4.60;99.90;;;;;;5099280;28;20705;-78
2021/12/07 11:34:06;;;;;;;31.93;19.87;;;4.60;99.90;;;;;;5084022;28;20320;-79
2021/12/07 11:36:35;;;;;;;37.13;20.60;;;4.60;99.90;;;;;;5092638;28;20253;-78
2021/12/07 11:39:19;;;;;;;34.03;20.57;;;4.70;99.90;;;;;;5096082;28;20224;-78
2021/12/07 11:41:49;;;;;;;32.93;19.83;;;4.70;99.90;;;;;;5091290;28;20305;-79
2021/12/07 11:44:16;;;;;;;34.43;20.87;;;4.70;99.90;;;;;;5089859;28;20222;-79
2021/12/07 11:46:48;;;;;;;33.20;20.43;;;4.70;99.90;;;;;;5087660;28;20548;-78
2021/12/07 11:49:20;;;;;;;35.00;19.93;;;4.80;99.90;;;;;;5099270;28;20740;-79
2021/12/07 11:51:49;;;;;;;35.57;20.20;;;4.80;99.90;;;;;;5088150;28;20269;-78
2021/12/07 11:54:18;;;;;;;36.47;20.77;;;4.80;99.90;;;;;;5090405;28;20223;-79
2021/12/07 11:56:47;;;;;;;34.30;19.93;;;4.90;99.90;;;;;;5088333;28;20220;-79
2021/12/07 11:59:15;;;;;;;33.97;19.63;;;4.90;99.90;;;;;;5096428;28;20226;-79
2021/12/07 12:01:44;;;;;;;35.43;20.23;;;4.90;99.90;;;;;;5067404;28;20315;-78
2021/12/07 12:04:11;;;;;;;38.53;21.20;;;4.90;99.90;;;;;;5086025;28;20631;-79
2021/12/07 12:06:37;;;;;;;32.40;19.80;;;4.90;99.90;;;;;;5092065;28;20236;-78
2021/12/07 12:09:05;;;;;;;35.33;21.03;;;5.00;99.90;;;;;;5089356;28;20224;-78
2021/12/07 12:11:40;;;;;;;35.83;21.17;;;4.90;99.90;;;;;;5088653;28;20731;-79
2021/12/07 12:14:22;;;;;;;32.10;19.93;;;4.90;99.90;;;;;;5096685;28;20258;-81
2021/12/07 12:16:59;;;;;;;35.30;21.17;;;5.00;99.90;;;;;;5096363;28;20248;-81
2021/12/07 12:19:35;;;;;;;36.00;19.90;;;5.00;99.90;;;;;;5100996;28;20229;-78
2021/12/07 12:22:16;;;;;;;31.33;19.60;;;5.10;99.90;;;;;;5081643;28;20234;-79
2021/12/07 12:24:49;;;;;;;31.87;19.77;;;5.10;99.90;;;;;;5083317;28;20230;-78
2021/12/07 12:27:19;;;;;;;37.60;21.57;;;5.10;99.90;;;;;;5092131;28;20217;-78
2021/12/07 12:29:51;;;;;;;30.70;19.20;;;5.10;99.90;;;;;;5086291;28;20250;-78
2021/12/07 12:32:28;;;;;;;33.53;20.77;;;5.10;99.90;;;;;;5087627;28;20233;-78
2021/12/07 12:34:57;;;;;;;34.03;20.10;;;5.10;99.90;;;;;;5089233;28;20309;-78
2021/12/07 12:37:26;;;;;;;36.93;21.40;;;5.20;99.90;;;;;;5087510;28;20674;-79
2021/12/07 12:39:55;;;;;;;35.77;20.53;;;5.10;99.90;;;;;;5089163;28;20229;-79
2021/12/07 12:42:32;;;;;;;32.60;19.57;;;5.10;99.90;;;;;;5093168;28;20247;-82
2021/12/07 12:45:12;;;;;;;36.70;22.83;;;5.10;99.90;;;;;;5092394;28;20282;-81
2021/12/07 12:47:40;;;;;;;35.70;21.20;;;5.10;99.90;;;;;;5091977;28;20321;-81
2021/12/07 12:50:17;;;;;;;35.50;21.37;;;5.20;99.90;;;;;;5086856;28;20258;-79
2021/12/07 12:52:46;;;;;;;34.63;20.77;;;5.20;99.90;;;;;;5088049;28;20853;-79
2021/12/07 12:55:33;;;;;;;34.77;20.47;;;5.20;99.90;;;;;;5095951;28;20716;-79
2021/12/07 12:58:01;;;;;;;38.40;21.57;;;5.20;99.90;;;;;;5086185;28;20725;-79
2021/12/07 13:01:02;;;;;;;36.63;21.80;;;5.20;99.90;;;;;;5097724;28;20223;-80
2021/12/07 13:03:44;;;;;;;34.50;21.07;;;5.20;99.90;;;;;;5079953;28;20226;-79
2021/12/07 13:06:13;;;;;;;38.80;21.27;;;5.20;99.90;;;;;;5099606;28;20244;-79
2021/12/07 13:08:53;;;;;;;36.23;21.03;;;5.20;99.90;;;;;;5090031;28;20316;-79
2021/12/07 13:11:33;;;;;;;34.50;20.47;;;5.10;99.90;;;;;;5092448;28;20244;-81
2021/12/07 13:13:59;;;;;;;37.07;20.20;;;5.10;99.90;;;;;;5094573;28;20299;-80
2021/12/07 13:16:26;;;;;;;36.20;21.87;;;5.10;99.90;;;;;;5089011;28;20221;-79
2021/12/07 13:19:02;;;;;;;36.70;22.27;;;5.10;99.90;;;;;;5093499;28;20301;-79
2021/12/07 13:21:30;;;;;;;38.07;21.70;;;5.10;99.90;;;;;;5093134;28;20221;-80
2021/12/07 13:23:59;;;;;;;37.50;20.37;;;5.10;99.90;;;;;;5091232;28;20250;-79
2021/12/07 13:26:26;;;;;;;37.73;21.37;;;5.10;99.90;;;;;;5095063;28;20230;-80
2021/12/07 13:29:04;;;;;;;36.90;21.13;;;5.10;99.90;;;;;;5095070;28;20219;-79
2021/12/07 13:31:37;;;;;;;38.63;21.70;;;5.00;99.90;;;;;;5097837;28;20304;-80
2021/12/07 13:34:06;;;;;;;36.53;21.37;;;5.10;99.90;;;;;;5081290;28;20225;-79
2021/12/07 13:36:46;;;;;;;36.40;21.10;;;5.10;99.90;;;;;;5084471;28;20271;-79
2021/12/07 13:39:45;;;;;;;38.33;22.03;;;5.00;99.90;;;;;;5086123;28;20265;-79
2021/12/07 13:42:21;;;;;;;39.37;22.13;;;5.10;99.90;;;;;;5089246;28;20221;-79
2021/12/07 13:44:52;;;;;;;37.57;21.40;;;5.10;99.90;;;;;;5093053;28;20213;-79
2021/12/07 13:47:25;;;;;;;36.53;21.67;;;5.10;99.90;;;;;;5087965;28;20839;-79
2021/12/07 13:49:56;;;;;;;34.30;21.10;;;5.00;99.90;;;;;;5087318;28;20288;-79
2021/12/07 13:52:25;;;;;;;37.70;22.20;;;5.10;99.90;;;;;;5085685;28;20245;-80
2021/12/07 13:54:54;;;;;;;36.43;22.77;;;5.00;99.90;;;;;;5086418;28;20556;-79
2021/12/07 13:57:23;;;;;;;38.33;21.57;;;5.00;99.90;;;;;;5088911;28;20307;-79
2021/12/07 14:00:05;;;;;;;34.93;21.60;;;5.00;99.90;;;;;;5097753;28;20234;-79
2021/12/07 14:02:40;;;;;;;37.00;22.07;;;5.00;99.90;;;;;;5087095;28;20226;-79
2021/12/07 14:05:11;;;;;;;38.80;22.33;;;5.00;99.90;;;;;;5092159;28;20219;-79
2021/12/07 14:07:39;;;;;;;36.67;21.50;;;5.00;99.90;;;;;;5090140;28;20221;-81
2021/12/07 14:10:10;;;;;;;36.50;22.30;;;5.00;99.90;;;;;;5095038;28;20238;-79
2021/12/07 14:12:37;;;;;;;41.43;22.93;;;5.00;99.90;;;;;;5094587;28;20235;-79
2021/12/07 14:15:16;;;;;;;41.20;23.07;;;4.90;99.90;;;;;;5086975;28;20322;-79